Time;durP1;ratioP1;P1;durP2;ratioP2;P2;SDS_P1;SDS_P2;PMS_P1;PMS_P2;Temp;Humidity;BMP_temperature;BMP_pressure;BME280_temperature;BME280_humidity;BME280_pressure;Samples;Min_cycle;Max_cycle;Signal;HPM_P1;HPM_P2
2022/08/28 00:01:26;;;;;;;9.90;2.85;;;;;;;20.78;48.72;101139.38;5055567;28;20053;-63
2022/08/28 00:03:53;;;;;;;6.10;2.90;;;;;;;20.96;48.59;101137.72;5040881;28;20389;-63
2022/08/28 00:06:20;;;;;;;6.70;2.85;;;;;;;20.89;47.73;101139.56;5058065;28;20064;-63
2022/08/28 00:08:48;;;;;;;9.45;3.33;;;;;;;20.89;48.56;101142.38;5055110;28;20164;-65
2022/08/28 00:11:15;;;;;;;9.25;3.15;;;;;;;20.92;48.71;101138.84;5036378;28;20049;-66
2022/08/28 00:13:43;;;;;;;7.43;2.80;;;;;;;21.04;48.03;101138.69;5055591;28;20068;-67
2022/08/28 00:16:10;;;;;;;8.63;3.00;;;;;;;21.17;48.53;101140.09;5055135;28;20539;-66
2022/08/28 00:18:38;;;;;;;7.60;2.70;;;;;;;21.09;48.00;101138.38;5054988;28;20411;-66
2022/08/28 00:21:05;;;;;;;8.32;3.15;;;;;;;20.85;48.41;101135.94;5055047;28;20053;-66
2022/08/28 00:23:32;;;;;;;9.27;3.15;;;;;;;20.71;49.41;101127.25;5065155;28;20045;-67
2022/08/28 00:27:51;;;;;;;10.90;3.30;;;;;;;20.89;49.07;101128.38;5074536;28;20044;-66
2022/08/28 00:28:58;;;;;;;12.35;3.30;;;;;;;20.69;49.15;101132.41;5056768;28;20078;-67
2022/08/28 00:31:25;;;;;;;8.88;3.03;;;;;;;20.87;48.93;101131.56;5074835;28;20415;-66
2022/08/28 00:33:52;;;;;;;7.10;2.83;;;;;;;20.75;49.47;101137.34;5074990;28;20063;-66
2022/08/28 00:36:20;;;;;;;12.65;3.10;;;;;;;20.63;49.62;101134.69;5074259;28;20064;-67
2022/08/28 00:38:47;;;;;;;7.57;3.08;;;;;;;20.41;50.19;101148.66;5074916;28;20048;-66
2022/08/28 00:41:15;;;;;;;8.82;3.10;;;;;;;20.43;50.46;101149.91;5074357;28;20056;-67
2022/08/28 00:44:05;;;;;;;7.45;2.70;;;;;;;20.37;50.63;101145.78;5058384;28;20063;-66
2022/08/28 00:46:32;;;;;;;7.25;2.72;;;;;;;20.35;50.59;101141.72;5074374;28;20053;-66
2022/08/28 00:49:00;;;;;;;6.65;3.00;;;;;;;20.33;51.10;101139.28;5057105;28;20055;-66
2022/08/28 00:54:13;;;;;;;13.27;3.15;;;;;;;20.50;50.87;101149.25;5074735;28;20041;-66
2022/08/28 00:56:41;;;;;;;10.55;2.85;;;;;;;20.35;50.95;101145.34;5074145;28;20053;-67
2022/08/28 00:59:13;;;;;;;8.02;2.92;;;;;;;20.32;50.77;101143.28;5074569;28;20051;-66
2022/08/28 01:01:42;;;;;;;8.68;2.63;;;;;;;20.21;50.99;101147.84;5074419;28;20040;-66
2022/08/28 01:04:14;;;;;;;9.38;3.13;;;;;;;20.38;51.24;101149.41;5060441;28;20070;-67
2022/08/28 01:06:47;;;;;;;10.88;2.95;;;;;;;20.44;51.24;101143.13;5034760;28;20057;-67
2022/08/28 01:09:14;;;;;;;9.02;2.90;;;;;;;20.46;51.72;101153.94;5054072;28;20057;-67
2022/08/28 01:11:49;;;;;;;10.45;3.00;;;;;;;20.42;50.99;101150.25;5037147;28;20053;-68
2022/08/28 01:14:21;;;;;;;6.45;2.70;;;;;;;20.30;51.77;101142.03;5036745;28;20056;-67
2022/08/28 01:16:54;;;;;;;8.25;2.85;;;;;;;20.13;52.01;101155.25;5036629;28;20427;-67
2022/08/28 01:19:30;;;;;;;8.43;2.50;;;;;;;19.87;52.85;101154.25;5037191;28;20044;-67
2022/08/28 01:22:20;;;;;;;8.30;2.60;;;;;;;19.89;53.18;101143.53;5036490;28;20550;-67
2022/08/28 01:24:49;;;;;;;6.88;2.95;;;;;;;19.94;52.94;101157.22;5054027;28;20065;-67
2022/08/28 01:27:17;;;;;;;6.50;2.70;;;;;;;19.81;53.42;101159.31;5054061;28;20377;-66
2022/08/28 01:29:44;;;;;;;8.30;2.90;;;;;;;19.87;53.59;101154.25;5054602;28;20534;-67
2022/08/28 01:32:29;;;;;;;6.90;2.60;;;;;;;19.78;53.63;101146.09;5054353;28;20072;-67
2022/08/28 01:34:57;;;;;;;7.15;2.90;;;;;;;19.99;53.79;101143.75;5054319;28;20049;-67
2022/08/28 01:37:24;;;;;;;8.48;2.60;;;;;;;19.84;53.79;101138.22;5042593;28;20053;-68
2022/08/28 01:39:53;;;;;;;9.60;2.88;;;;;;;19.94;53.79;101132.06;5036383;28;20049;-63
2022/08/28 01:42:20;;;;;;;6.22;2.75;;;;;;;19.96;53.60;101130.50;5053697;28;20041;-63
2022/08/28 01:44:48;;;;;;;8.25;2.85;;;;;;;19.97;53.59;101137.72;5053366;28;20503;-63
2022/08/28 01:47:16;;;;;;;6.30;2.63;;;;;;;19.91;53.80;101136.38;5053800;28;20057;-63
2022/08/28 01:49:43;;;;;;;6.97;2.97;;;;;;;19.65;54.58;101133.38;5054441;28;20522;-63
2022/08/28 01:52:11;;;;;;;6.18;3.10;;;;;;;19.78;54.51;101129.31;5035379;28;20539;-64
2022/08/28 01:54:39;;;;;;;6.78;2.83;;;;;;;19.48;55.17;101124.59;5054029;28;20045;-63
2022/08/28 01:57:07;;;;;;;6.05;2.78;;;;;;;19.48;55.71;101121.78;5053393;28;20060;-63
2022/08/28 01:59:35;;;;;;;6.93;2.55;;;;;;;19.26;55.86;101126.03;5035735;28;20057;-63
2022/08/28 02:02:02;;;;;;;10.57;2.67;;;;;;;19.45;55.70;101120.56;5035197;28;20045;-63
2022/08/28 02:04:30;;;;;;;7.50;2.70;;;;;;;19.57;55.63;101133.59;5067025;28;20048;-63
2022/08/28 02:06:58;;;;;;;7.07;2.70;;;;;;;19.76;55.45;101131.66;5064599;28;20057;-64
2022/08/28 02:09:26;;;;;;;8.25;2.67;;;;;;;19.88;54.57;101130.69;5053970;28;20057;-64
2022/08/28 02:11:53;;;;;;;12.27;2.67;;;;;;;19.81;54.40;101133.34;5053033;28;20049;-62
2022/08/28 02:14:21;;;;;;;9.48;2.92;;;;;;;19.82;55.16;101127.38;5053789;28;20518;-64
2022/08/28 02:16:48;;;;;;;7.95;2.78;;;;;;;19.78;55.13;101123.72;5053539;28;20059;-63
2022/08/28 02:19:16;;;;;;;12.07;3.15;;;;;;;19.81;54.89;101127.75;5021004;28;20049;-63
2022/08/28 02:21:43;;;;;;;6.93;2.85;;;;;;;19.68;55.59;101127.06;5057311;28;20049;-64
2022/08/28 02:24:10;;;;;;;8.85;2.80;;;;;;;19.52;55.95;101126.31;5072483;28;20048;-62
2022/08/28 02:26:38;;;;;;;6.63;2.60;;;;;;;19.52;56.29;101131.91;5042257;28;20053;-63
2022/08/28 02:29:05;;;;;;;6.70;2.33;;;;;;;19.59;56.14;101128.44;5040090;28;20049;-63
2022/08/28 02:31:32;;;;;;;8.23;2.80;;;;;;;19.76;55.61;101128.03;5056664;28;20056;-63
2022/08/28 02:34:00;;;;;;;6.85;2.65;;;;;;;19.73;55.63;101134.38;5023371;28;20048;-63
2022/08/28 02:36:27;;;;;;;7.93;3.05;;;;;;;19.63;56.32;101140.53;5056916;28;20044;-63
2022/08/28 02:38:55;;;;;;;7.32;2.83;;;;;;;19.44;56.31;101140.47;5057508;28;20048;-64
2022/08/28 02:41:24;;;;;;;7.43;2.73;;;;;;;19.48;56.57;101136.59;5056863;28;20421;-62
2022/08/28 02:43:52;;;;;;;7.63;3.17;;;;;;;19.64;56.02;101131.78;5039609;28;20407;-64
2022/08/28 02:46:19;;;;;;;8.85;2.95;;;;;;;19.53;56.29;101127.09;5056783;28;20060;-62
2022/08/28 02:48:46;;;;;;;5.55;2.63;;;;;;;19.60;56.47;101133.66;5057514;28;20041;-62
2022/08/28 02:51:13;;;;;;;6.75;2.70;;;;;;;19.63;56.55;101130.13;5056847;28;20053;-62
2022/08/28 02:53:41;;;;;;;10.73;3.33;;;;;;;19.76;56.27;101125.25;5057423;28;20049;-63
2022/08/28 02:56:09;;;;;;;7.47;2.85;;;;;;;19.75;55.92;101127.22;5055927;28;20052;-63
2022/08/28 02:58:37;;;;;;;10.20;2.75;;;;;;;19.72;55.85;101125.16;5057256;28;20452;-63
2022/08/28 03:01:09;;;;;;;10.95;2.60;;;;;;;19.70;56.21;101123.94;5056281;28;20041;-63
2022/08/28 03:03:38;;;;;;;5.63;2.50;;;;;;;19.55;56.48;101125.56;5057125;28;20055;-63
2022/08/28 03:06:11;;;;;;;10.60;3.05;;;;;;;19.65;56.59;101122.22;5080452;28;20056;-62
2022/08/28 03:08:40;;;;;;;8.25;2.90;;;;;;;19.64;56.54;101123.41;5057236;28;20064;-62
2022/08/28 03:11:08;;;;;;;9.63;3.47;;;;;;;19.57;56.81;101123.22;5056525;28;20075;-62
2022/08/28 03:13:35;;;;;;;10.35;3.20;;;;;;;19.42;57.24;101120.47;5057210;28;20045;-62
2022/08/28 03:16:03;;;;;;;8.13;2.88;;;;;;;19.39;57.13;101113.59;5056371;28;20056;-63
2022/08/28 03:18:31;;;;;;;9.05;3.00;;;;;;;19.34;57.65;101121.44;5038340;28;20109;-63
2022/08/28 03:20:59;;;;;;;8.70;3.30;;;;;;;19.48;57.83;101119.81;5056182;28;20045;-62
2022/08/28 03:23:27;;;;;;;8.13;2.60;;;;;;;19.35;57.62;101115.53;5047111;28;20059;-63
2022/08/28 03:26:05;;;;;;;8.57;3.25;;;;;;;19.46;57.38;101121.34;5076068;28;20044;-62
2022/08/28 03:28:37;;;;;;;8.85;3.28;;;;;;;19.22;58.04;101125.13;5058953;28;20048;-63
2022/08/28 03:31:05;;;;;;;11.43;3.05;;;;;;;19.04;58.75;101121.91;5074698;28;20590;-63
2022/08/28 03:33:33;;;;;;;9.98;3.22;;;;;;;19.05;59.37;101117.94;5058923;28;20059;-62
2022/08/28 03:36:01;;;;;;;11.98;3.55;;;;;;;19.07;58.72;101123.97;5075689;28;20063;-63
2022/08/28 03:38:31;;;;;;;11.13;3.00;;;;;;;19.18;58.63;101127.03;5076338;28;20474;-63
2022/08/28 03:40:58;;;;;;;14.57;3.00;;;;;;;19.40;57.97;101123.63;5075609;28;20051;-65
2022/08/28 03:43:26;;;;;;;10.43;3.03;;;;;;;19.47;57.81;101114.59;5076524;28;20051;-62
2022/08/28 03:46:02;;;;;;;8.82;3.78;;;;;;;19.30;57.99;101118.56;5057575;28;20053;-62
2022/08/28 03:48:33;;;;;;;8.48;2.90;;;;;;;19.42;58.05;101124.03;5041761;28;20051;-63
2022/08/28 03:51:05;;;;;;;8.63;3.38;;;;;;;19.12;58.81;101117.31;5075637;28;20378;-63
2022/08/28 03:53:33;;;;;;;7.28;2.95;;;;;;;18.81;60.54;101120.88;5041757;28;20052;-62
2022/08/28 03:56:10;;;;;;;10.40;3.25;;;;;;;19.17;59.25;101119.84;5057192;28;20052;-63
2022/08/28 03:58:39;;;;;;;7.05;3.53;;;;;;;18.83;60.16;101123.31;5041140;28;20060;-63
2022/08/28 04:01:07;;;;;;;11.82;4.10;;;;;;;18.65;60.97;101128.47;5057471;28;20538;-62
2022/08/28 04:03:35;;;;;;;9.90;3.60;;;;;;;18.53;61.21;101122.91;5075885;28;20056;-64
2022/08/28 04:06:02;;;;;;;9.55;3.20;;;;;;;18.47;61.73;101123.53;5079147;28;20060;-63
2022/08/28 04:08:30;;;;;;;7.45;3.47;;;;;;;18.66;61.32;101134.81;5055603;28;20052;-63
2022/08/28 04:10:59;;;;;;;9.75;3.25;;;;;;;18.87;60.61;101129.81;5070608;28;20045;-63
2022/08/28 04:13:27;;;;;;;14.33;3.50;;;;;;;18.71;61.10;101140.13;5055864;28;20057;-63
2022/08/28 04:16:01;;;;;;;8.57;3.10;;;;;;;18.59;61.48;101129.06;5055111;28;20053;-63
2022/08/28 04:18:33;;;;;;;6.70;3.55;;;;;;;18.34;62.16;101131.13;5037884;28;20067;-62
2022/08/28 04:21:06;;;;;;;9.13;3.55;;;;;;;18.52;62.12;101126.06;5037282;28;20045;-63
2022/08/28 04:23:35;;;;;;;8.90;3.45;;;;;;;18.71;61.56;101129.81;5065507;28;20056;-64
2022/08/28 04:26:07;;;;;;;9.10;3.30;;;;;;;18.86;60.78;101133.78;5056803;28;20067;-63
2022/08/28 04:28:34;;;;;;;8.25;3.47;;;;;;;18.81;61.34;101134.84;5074902;28;20408;-64
2022/08/28 04:31:02;;;;;;;10.95;3.90;;;;;;;18.70;61.01;101132.94;5057286;28;20044;-63
2022/08/28 04:33:31;;;;;;;8.32;3.47;;;;;;;18.75;61.20;101136.28;5075213;28;20053;-63
2022/08/28 04:36:08;;;;;;;8.45;3.33;;;;;;;18.91;60.87;101133.53;5056742;28;20055;-63
2022/08/28 04:38:38;;;;;;;11.73;3.40;;;;;;;18.60;62.00;101131.47;5075228;28;20056;-63
2022/08/28 04:41:13;;;;;;;10.18;3.60;;;;;;;18.75;61.52;101127.09;5073908;28;20059;-63
2022/08/28 04:43:41;;;;;;;7.78;3.55;;;;;;;18.35;62.82;101135.53;5057266;28;20056;-63
2022/08/28 04:46:13;;;;;;;8.23;3.40;;;;;;;18.48;62.48;101139.13;5056567;28;20395;-63
2022/08/28 04:48:41;;;;;;;8.02;3.50;;;;;;;18.69;61.92;101140.50;5057194;28;20412;-62
2022/08/28 04:51:10;;;;;;;9.85;3.70;;;;;;;18.43;62.85;101147.75;5074270;28;20036;-62
2022/08/28 04:53:38;;;;;;;9.40;3.38;;;;;;;18.54;62.71;101154.44;5075104;28;20527;-63
2022/08/28 04:56:08;;;;;;;8.75;3.38;;;;;;;18.23;63.37;101155.13;5056483;28;20045;-63
2022/08/28 04:58:35;;;;;;;8.57;3.28;;;;;;;18.10;64.06;101166.66;5074972;28;20071;-63
2022/08/28 05:01:06;;;;;;;6.40;3.38;;;;;;;18.14;64.31;101165.59;5055557;28;20057;-62
2022/08/28 05:03:34;;;;;;;15.57;3.90;;;;;;;18.22;63.66;101164.63;5057290;28;20055;-64
2022/08/28 05:06:02;;;;;;;9.68;3.88;;;;;;;18.45;63.71;101162.94;5078931;28;20052;-63
2022/08/28 05:08:30;;;;;;;9.52;3.60;;;;;;;18.37;63.47;101166.69;5054704;28;20061;-64
2022/08/28 05:11:10;;;;;;;7.97;3.60;;;;;;;18.61;63.17;101160.19;5053926;28;20103;-62
2022/08/28 05:13:37;;;;;;;11.05;3.78;;;;;;;18.27;63.68;101167.16;5053899;28;20049;-62
2022/08/28 05:16:05;;;;;;;11.00;3.75;;;;;;;18.37;63.70;101169.47;5054032;28;20045;-62
2022/08/28 05:18:33;;;;;;;10.27;3.30;;;;;;;18.28;63.82;101171.59;5054609;28;20053;-62
2022/08/28 05:21:01;;;;;;;7.88;3.28;;;;;;;18.30;64.05;101169.28;5035595;28;20052;-63
2022/08/28 05:23:28;;;;;;;9.05;3.13;;;;;;;18.45;63.80;101176.91;5063627;28;20507;-63
2022/08/28 05:25:56;;;;;;;9.88;3.90;;;;;;;18.59;62.92;101168.94;5073663;28;20503;-63
2022/08/28 05:28:24;;;;;;;13.40;4.20;;;;;;;18.10;64.04;101181.41;5040425;28;20048;-64
2022/08/28 05:30:52;;;;;;;11.65;3.55;;;;;;;17.94;65.33;101181.31;5073958;28;20400;-63
2022/08/28 05:33:19;;;;;;;10.38;3.50;;;;;;;18.12;64.98;101179.06;5073766;28;20060;-63
2022/08/28 05:35:47;;;;;;;7.07;3.78;;;;;;;18.15;65.17;101186.72;5074558;28;20056;-63
2022/08/28 05:38:15;;;;;;;14.70;4.07;;;;;;;18.21;64.64;101190.09;5074551;28;20057;-64
2022/08/28 05:40:44;;;;;;;14.25;4.10;;;;;;;18.12;65.14;101192.19;5074455;28;20442;-63
2022/08/28 05:43:13;;;;;;;9.83;3.20;;;;;;;18.11;65.47;101199.78;5074369;28;20055;-63
2022/08/28 05:45:41;;;;;;;11.93;4.05;;;;;;;18.28;64.76;101202.28;5074118;28;20048;-63
2022/08/28 05:48:09;;;;;;;13.13;3.78;;;;;;;18.13;65.11;101199.41;5056531;28;20829;-63
2022/08/28 05:50:37;;;;;;;13.43;3.63;;;;;;;18.39;65.11;101205.38;5074186;28;20044;-64
2022/08/28 05:53:09;;;;;;;9.32;3.85;;;;;;;18.54;64.54;101194.31;5074599;28;20055;-65
2022/08/28 05:55:39;;;;;;;12.38;3.38;;;;;;;18.60;63.74;101201.25;5078037;28;20055;-63
2022/08/28 06:01:06;;;;;;;12.85;3.92;;;;;;;18.10;65.47;101200.13;5064670;28;20052;-65
2022/08/28 06:03:34;;;;;;;10.60;3.85;;;;;;;18.10;65.53;101197.34;5078439;28;20207;-63
2022/08/28 06:06:03;;;;;;;14.15;3.78;;;;;;;18.30;65.14;101188.78;5082413;28;20060;-64
2022/08/28 06:08:31;;;;;;;11.20;3.40;;;;;;;18.61;64.64;101185.31;5057885;28;20076;-64
2022/08/28 06:11:01;;;;;;;10.40;3.72;;;;;;;18.56;64.07;101182.78;5057455;28;20059;-64
2022/08/28 06:13:29;;;;;;;;;;;;;;;18.32;64.90;101194.84;5058674;28;20048;-63
2022/08/28 06:15:56;;;;;;;12.63;3.90;;;;;;;18.34;64.96;101200.06;5040084;28;19921;-64
2022/08/28 06:18:24;;;;;;;13.50;3.97;;;;;;;18.35;65.26;101196.91;5039423;28;20056;-64
2022/08/28 06:20:52;;;;;;;14.77;3.92;;;;;;;18.25;65.47;101194.63;5056537;28;20080;-63
2022/08/28 06:23:21;;;;;;;9.35;3.63;;;;;;;18.32;65.41;101202.38;5065848;28;20049;-63
2022/08/28 06:25:50;;;;;;;;;;;;;;;18.49;64.65;101207.69;5058963;28;20063;-62
2022/08/28 06:28:20;;;;;;;11.98;3.50;;;;;;;18.44;65.11;101199.56;5077726;28;20401;-63
2022/08/28 06:30:49;;;;;;;12.07;3.65;;;;;;;18.67;64.41;101198.66;5077377;28;20063;-63
2022/08/28 06:33:36;;;;;;;12.90;4.13;;;;;;;18.63;64.45;101199.72;5077109;28;20063;-63
2022/08/28 06:36:04;;;;;;;10.82;3.63;;;;;;;18.68;64.23;101203.09;5077325;28;20056;-63
2022/08/28 06:38:31;;;;;;;11.80;3.72;;;;;;;18.64;64.26;101209.72;5077668;28;20056;-64
2022/08/28 06:40:58;;;;;;;8.57;3.55;;;;;;;18.74;63.98;101193.25;5059191;28;20060;-64
2022/08/28 06:43:27;;;;;;;11.50;3.17;;;;;;;18.76;63.86;101202.09;5059008;28;20075;-64
2022/08/28 06:45:56;;;;;;;13.13;3.63;;;;;;;18.92;64.07;101205.75;5059463;28;20051;-63
2022/08/28 06:48:26;;;;;;;10.73;3.60;;;;;;;18.78;63.76;101212.91;5077148;28;20049;-63
2022/08/28 06:50:55;;;;;;;10.25;3.92;;;;;;;18.81;64.06;101198.25;5076834;28;20048;-64
2022/08/28 06:53:26;;;;;;;10.48;3.97;;;;;;;18.74;63.98;101212.81;5042305;28;20056;-63
2022/08/28 06:56:00;;;;;;;10.45;3.70;;;;;;;18.55;64.85;101209.88;5076668;28;20048;-62
2022/08/28 06:58:28;;;;;;;10.38;3.42;;;;;;;18.68;64.36;101216.22;5077147;28;20119;-64
2022/08/28 07:01:12;;;;;;;10.23;3.40;;;;;;;18.72;64.52;101217.13;5076671;28;20131;-63
2022/08/28 07:03:40;;;;;;;11.65;4.10;;;;;;;18.68;64.59;101216.22;5059561;28;20119;-63
2022/08/28 07:06:12;;;;;;;12.98;3.70;;;;;;;18.59;64.56;101209.97;5055154;28;20407;-64
2022/08/28 07:08:40;;;;;;;10.25;3.67;;;;;;;18.24;65.60;101218.06;5055814;28;20049;-64
2022/08/28 07:11:09;;;;;;;9.88;4.10;;;;;;;18.44;65.74;101205.16;5056190;28;20052;-63
2022/08/28 07:13:36;;;;;;;12.32;3.95;;;;;;;18.59;65.25;101219.16;5056971;28;20582;-64
2022/08/28 07:16:03;;;;;;;15.95;3.97;;;;;;;18.71;64.97;101221.91;5038700;28;20044;-64
2022/08/28 07:18:31;;;;;;;14.82;4.22;;;;;;;18.71;64.72;101229.44;5056763;28;20053;-63
2022/08/28 07:20:59;;;;;;;9.50;3.78;;;;;;;18.67;64.61;101217.41;5038164;28;20064;-63
2022/08/28 07:23:28;;;;;;;10.32;3.90;;;;;;;18.66;64.86;101226.91;5065415;28;20055;-65
2022/08/28 07:25:55;;;;;;;15.45;4.38;;;;;;;18.83;64.70;101224.63;5076101;28;20056;-62
2022/08/28 07:28:23;;;;;;;11.57;4.18;;;;;;;19.04;63.72;101224.38;5076138;28;20451;-63
2022/08/28 07:30:59;;;;;;;10.25;3.42;;;;;;;19.12;63.70;101223.44;5041434;28;20498;-63
2022/08/28 07:33:27;;;;;;;10.00;4.07;;;;;;;19.33;63.26;101218.44;5076497;28;20052;-63
2022/08/28 07:35:56;;;;;;;10.98;3.83;;;;;;;19.30;62.65;101213.53;5075857;28;20091;-62
2022/08/28 07:38:24;;;;;;;11.75;4.03;;;;;;;19.29;63.00;101214.69;5058700;28;20052;-63
2022/08/28 07:40:52;;;;;;;12.80;4.22;;;;;;;19.28;62.69;101217.84;5074756;28;20056;-64
2022/08/28 07:46:08;;;;;;;12.30;4.25;;;;;;;19.21;63.44;101223.25;5075668;28;20060;-64
2022/08/28 07:48:36;;;;;;;12.07;4.20;;;;;;;19.17;63.20;101227.94;5057842;28;20526;-63
2022/08/28 07:51:06;;;;;;;11.23;4.55;;;;;;;19.19;63.32;101226.41;5075554;28;20051;-63
2022/08/28 07:53:34;;;;;;;10.65;4.10;;;;;;;19.40;62.94;101226.19;5076469;28;20048;-62
2022/08/28 07:56:04;;;;;;;14.18;4.55;;;;;;;19.27;63.13;101222.63;5075599;28;20055;-63
2022/08/28 07:58:31;;;;;;;10.65;4.68;;;;;;;19.37;62.95;101213.72;5076505;28;20066;-65
2022/08/28 08:01:00;;;;;;;12.10;4.60;;;;;;;19.29;63.09;101234.25;5075527;28;20059;-64
2022/08/28 08:03:29;;;;;;;9.75;4.18;;;;;;;19.26;63.06;101226.59;5057723;28;20047;-63
2022/08/28 08:06:02;;;;;;;12.60;4.20;;;;;;;19.34;62.87;101233.19;5062481;28;20160;-65
2022/08/28 08:08:30;;;;;;;12.27;4.25;;;;;;;19.32;62.94;101230.75;5055600;28;20404;-64
2022/08/28 08:11:09;;;;;;;13.18;4.45;;;;;;;19.21;63.60;101226.06;5055132;28;20048;-63
2022/08/28 08:13:40;;;;;;;11.60;4.60;;;;;;;19.23;63.39;101218.13;5055769;28;20045;-64
2022/08/28 08:16:10;;;;;;;11.63;4.50;;;;;;;19.28;63.61;101227.06;5055347;28;20056;-64
2022/08/28 08:18:38;;;;;;;;;;;;;;;19.44;62.71;101233.47;5055984;28;20063;-64
2022/08/28 08:21:11;;;;;;;19.25;4.65;;;;;;;19.23;63.15;101229.31;5055395;28;19920;-64
2022/08/28 08:23:40;;;;;;;15.05;5.32;;;;;;;19.21;63.78;101237.22;5066223;28;20045;-63
2022/08/28 08:26:15;;;;;;;10.18;4.32;;;;;;;19.28;63.33;101227.06;5075039;28;20052;-63
2022/08/28 08:28:43;;;;;;;12.25;4.57;;;;;;;19.35;63.69;101238.44;5075515;28;20056;-63
2022/08/28 08:31:18;;;;;;;12.25;4.63;;;;;;;19.80;62.11;101224.81;5074943;28;20408;-63
2022/08/28 08:33:49;;;;;;;22.70;10.18;;;;;;;20.12;61.36;101231.13;5057813;28;20520;-63
2022/08/28 08:36:18;;;;;;;17.23;5.50;;;;;;;20.23;60.45;101232.22;5057072;28;20221;-63
2022/08/28 08:38:46;;;;;;;10.35;4.80;;;;;;;20.21;60.09;101239.38;5075353;28;20052;-64
2022/08/28 08:41:24;;;;;;;12.48;4.80;;;;;;;19.88;61.60;101236.94;5074644;28;20067;-64
2022/08/28 08:43:59;;;;;;;11.68;4.68;;;;;;;19.92;60.84;101233.09;5057566;28;20045;-65
2022/08/28 08:46:41;;;;;;;13.55;4.45;;;;;;;19.92;61.23;101247.06;5057074;28;20048;-64
2022/08/28 08:49:20;;;;;;;14.73;4.78;;;;;;;19.95;61.44;101237.94;5057581;28;20053;-63
2022/08/28 08:52:01;;;;;;;12.97;4.67;;;;;;;20.29;60.60;101229.94;5056860;28;20534;-63
2022/08/28 08:54:28;;;;;;;11.48;4.93;;;;;;;19.81;61.71;101239.56;5039662;28;20052;-63
2022/08/28 08:56:56;;;;;;;12.65;4.57;;;;;;;19.75;62.22;101227.06;5056488;28;20059;-63
2022/08/28 08:59:29;;;;;;;10.35;5.05;;;;;;;20.05;61.26;101216.97;5074765;28;20178;-63
2022/08/28 09:02:17;;;;;;;12.77;5.13;;;;;;;20.32;60.42;101227.22;5057419;28;20057;-65
2022/08/28 09:04:56;;;;;;;15.18;5.63;;;;;;;20.15;60.81;101233.22;5065281;28;20052;-62
2022/08/28 09:07:30;;;;;;;10.70;5.20;;;;;;;20.47;59.89;101234.72;5038959;28;20056;-62
2022/08/28 09:09:58;;;;;;;12.73;5.70;;;;;;;20.58;59.34;101227.38;5037058;28;20068;-63
2022/08/28 09:12:30;;;;;;;15.93;5.57;;;;;;;20.71;59.06;101222.44;5053630;28;20052;-63
2022/08/28 09:15:04;;;;;;;10.32;5.00;;;;;;;20.92;58.43;101223.66;5036744;28;20595;-63
2022/08/28 09:17:36;;;;;;;13.80;5.30;;;;;;;20.70;58.64;101223.59;5054112;28;20053;-62
2022/08/28 09:20:08;;;;;;;12.82;5.65;;;;;;;20.40;59.62;101222.59;5037001;28;20519;-64
2022/08/28 09:22:37;;;;;;;14.23;4.90;;;;;;;20.43;60.13;101227.44;5022266;28;20057;-63
2022/08/28 09:25:05;;;;;;;14.85;6.13;;;;;;;20.56;59.49;101221.34;5074604;28;20037;-63
2022/08/28 09:27:34;;;;;;;13.80;5.72;;;;;;;20.36;59.70;101228.13;5073903;28;20558;-63
2022/08/28 09:30:10;;;;;;;14.40;5.32;;;;;;;20.42;59.85;101234.22;5057070;28;20044;-65
2022/08/28 09:32:43;;;;;;;17.95;6.90;;;;;;;20.74;59.22;101225.31;5074249;28;20052;-63
2022/08/28 09:35:12;;;;;;;14.15;6.20;;;;;;;20.92;58.49;101220.06;5074270;28;20052;-63
2022/08/28 09:37:41;;;;;;;14.45;6.78;;;;;;;21.05;57.92;101219.56;5073354;28;20064;-64
2022/08/28 09:43:25;;;;;;;14.80;7.00;;;;;;;21.04;57.31;101217.91;5059524;28;20059;-63
2022/08/28 09:46:15;;;;;;;12.20;6.75;;;;;;;21.14;57.20;101214.53;5023434;28;20060;-63
2022/08/28 09:48:44;;;;;;;16.42;6.03;;;;;;;21.15;57.33;101213.31;5074217;28;20063;-64
2022/08/28 09:51:26;;;;;;;18.08;6.70;;;;;;;21.14;57.04;101214.53;5055594;28;20526;-62
2022/08/28 09:53:53;;;;;;;14.57;7.03;;;;;;;21.24;56.99;101213.91;5056656;28;20053;-63
2022/08/28 09:56:35;;;;;;;14.38;6.50;;;;;;;21.07;57.28;101200.38;5073516;28;20072;-64
2022/08/28 09:59:08;;;;;;;15.43;6.82;;;;;;;21.30;56.80;101203.19;5073977;28;20068;-63
2022/08/28 10:01:45;;;;;;;13.20;6.53;;;;;;;21.33;56.43;101204.44;5074097;28;20400;-65
2022/08/28 10:04:40;;;;;;;15.20;6.47;;;;;;;21.55;55.86;101198.81;5059935;28;20051;-63
2022/08/28 10:07:37;;;;;;;19.00;6.53;;;;;;;21.80;55.30;101200.03;5061266;28;20052;-66
2022/08/28 10:10:29;;;;;;;18.50;6.93;;;;;;;21.50;55.62;101210.34;5037470;28;20056;-63
2022/08/28 10:13:18;;;;;;;15.90;7.95;;;;;;;21.41;55.46;101204.16;5052525;28;20673;-65
2022/08/28 10:16:20;;;;;;;14.15;7.55;;;;;;;21.31;56.01;101203.97;5053986;28;20045;-64
2022/08/28 10:19:18;;;;;;;14.00;7.40;;;;;;;21.27;55.92;101196.34;5036301;28;20493;-64
2022/08/28 10:22:10;;;;;;;11.98;7.07;;;;;;;21.50;55.53;101204.72;5019978;28;20048;-64
2022/08/28 10:25:17;;;;;;;17.38;6.32;;;;;;;21.72;55.19;101197.47;5055019;28;20041;-66
2022/08/28 10:28:00;;;;;;;14.63;7.80;;;;;;;21.69;54.68;101199.03;5073420;28;20060;-64
2022/08/28 10:30:30;;;;;;;14.70;7.25;;;;;;;21.53;55.08;101198.34;5039346;28;20083;-63
2022/08/28 10:33:16;;;;;;;16.77;7.40;;;;;;;21.73;54.53;101197.09;5056256;28;20155;-63
2022/08/28 10:36:18;;;;;;;13.93;6.38;;;;;;;21.95;54.24;101189.84;5073392;28;20064;-65
2022/08/28 10:39:14;;;;;;;10.52;5.53;;;;;;;22.13;53.46;101188.91;5058243;28;20054;-65
2022/08/28 10:41:48;;;;;;;14.07;6.43;;;;;;;21.93;53.80;101204.22;5077086;28;20056;-65
2022/08/28 10:44:38;;;;;;;15.30;7.35;;;;;;;21.78;54.29;101202.41;5059963;28;20049;-63
2022/08/28 10:47:07;;;;;;;14.40;6.00;;;;;;;21.89;54.25;101197.78;5075625;28;20530;-64
2022/08/28 10:49:37;;;;;;;13.32;6.10;;;;;;;21.85;54.02;101205.31;5077109;28;20048;-65
2022/08/28 10:52:24;;;;;;;8.70;5.70;;;;;;;21.92;53.76;101199.00;5076854;28;20052;-64
2022/08/28 10:55:00;;;;;;;16.77;6.43;;;;;;;22.11;53.44;101198.88;5077234;28;20124;-63
2022/08/28 10:57:52;;;;;;;14.20;6.28;;;;;;;21.96;53.48;101191.47;5023863;28;20049;-65
2022/08/28 11:00:22;;;;;;;12.20;5.90;;;;;;;22.20;52.75;101193.81;5038805;28;20064;-64
2022/08/28 11:02:53;;;;;;;13.43;5.30;;;;;;;22.41;52.32;101193.28;5057305;28;20048;-64
2022/08/28 11:05:22;;;;;;;12.48;5.57;;;;;;;22.41;51.72;101196.06;5062703;28;20526;-65
2022/08/28 11:07:56;;;;;;;9.65;5.05;;;;;;;22.44;51.52;101190.50;5056727;28;20376;-64
2022/08/28 11:10:33;;;;;;;12.77;5.22;;;;;;;22.48;51.52;101190.56;5038792;28;20053;-64
2022/08/28 11:13:02;;;;;;;10.65;5.28;;;;;;;22.35;52.41;101182.38;5057022;28;20060;-63
2022/08/28 11:15:32;;;;;;;12.77;5.47;;;;;;;22.46;52.07;101187.31;5056430;28;20056;-64
2022/08/28 11:18:12;;;;;;;10.38;4.50;;;;;;;22.64;51.28;101186.38;5057017;28;20064;-64
2022/08/28 11:20:59;;;;;;;10.90;5.30;;;;;;;22.61;51.12;101191.97;5056299;28;20060;-64
2022/08/28 11:23:42;;;;;;;8.65;4.45;;;;;;;22.60;50.59;101182.72;5047181;28;20523;-64
2022/08/28 11:26:11;;;;;;;10.77;4.53;;;;;;;22.86;50.54;101174.19;5042307;28;20051;-64
2022/08/28 11:28:46;;;;;;;10.32;4.50;;;;;;;22.94;49.85;101180.69;5058772;28;20044;-63
2022/08/28 11:31:13;;;;;;;10.10;3.70;;;;;;;23.11;49.05;101171.63;5076385;28;20059;-64
2022/08/28 11:33:58;;;;;;;9.90;3.95;;;;;;;23.04;48.62;101175.19;5076810;28;20048;-63
2022/08/28 11:36:27;;;;;;;11.75;4.75;;;;;;;23.14;49.04;101180.09;5058648;28;20044;-64
2022/08/28 11:38:54;;;;;;;9.13;4.40;;;;;;;23.21;49.33;101174.53;5076434;28;20053;-64
2022/08/28 11:41:35;;;;;;;8.82;4.35;;;;;;;23.35;48.82;101173.88;5075910;28;20056;-65
2022/08/28 11:44:08;;;;;;;8.25;3.97;;;;;;;23.32;48.82;101171.84;5058533;28;20040;-64
2022/08/28 11:46:44;;;;;;;10.18;4.20;;;;;;;23.29;48.80;101164.22;5064744;28;20538;-63
2022/08/28 11:49:24;;;;;;;10.50;4.57;;;;;;;23.67;48.29;101174.13;5038632;28;20412;-65
2022/08/28 11:52:10;;;;;;;10.15;4.65;;;;;;;23.49;48.39;101173.19;5055146;28;20049;-64
2022/08/28 11:54:56;;;;;;;9.63;4.20;;;;;;;23.56;48.60;101178.88;5055636;28;20057;-65